Taraghin, Libya
Current Conditions -  °F | °C
As of 6:00 PM on Friday 19 Dec 2014 (Local Time) from DAUZ Reporting Station
Clear Clear  
Wind Chill: 63°   Ceiling: Unl
Heat Index: 63°   Visibility: 6mi
Dew Point: 30°   Wind: 2mph
Humidity: 30%   Direction: NA
Pressure: 30.24"   Gusts: NA
Location:  25.98°N, 14.43°E
Report Text: DAUZ 191500Z VRB02KT CAVOK 17/M01 Q1024
Loading
Personal Weather Stations






























Interactive Weather Map New forecast layout! Learn more

10-Day Weather Forecast

Advertisements
Track Severe Weather on mobile